createdAt,value
2022-12-12T00:02:16.898Z,14.10
2022-12-12T00:07:20.176Z,13.25
2022-12-12T00:09:49.283Z,13.75
2022-12-12T00:12:18.898Z,12.55
2022-12-12T00:14:48.080Z,13.02
2022-12-12T00:17:24.372Z,12.40
2022-12-12T00:19:53.680Z,12.82
2022-12-12T00:22:22.933Z,13.63
2022-12-12T00:24:52.062Z,12.27
2022-12-12T00:27:21.180Z,12.27
2022-12-12T00:29:54.107Z,11.63
2022-12-12T00:32:26.606Z,11.95
2022-12-12T00:34:55.801Z,11.38
2022-12-12T00:37:25.004Z,11.30
2022-12-12T00:39:54.986Z,12.20
2022-12-12T00:42:26.842Z,10.73
2022-12-12T00:47:33.601Z,11.57
2022-12-12T00:50:02.856Z,10.02
2022-12-12T00:52:32.891Z,10.88
2022-12-12T00:55:08.764Z,11.23
2022-12-12T00:57:38.009Z,10.55
2022-12-12T01:00:10.339Z,11.55
2022-12-12T01:02:41.570Z,10.85
2022-12-12T01:05:11.896Z,10.77
2022-12-12T01:07:41.382Z,10.85
2022-12-12T01:10:11.447Z,11.40
2022-12-12T01:12:40.728Z,11.45
2022-12-12T01:15:12.066Z,11.20
2022-12-12T01:17:44.419Z,10.35
2022-12-12T01:20:18.738Z,10.50
2022-12-12T01:22:53.945Z,11.32
2022-12-12T01:25:28.387Z,10.30
2022-12-12T01:30:37.108Z,10.23
2022-12-12T01:33:08.475Z,10.50
2022-12-12T01:35:37.819Z,10.00
2022-12-12T01:38:07.413Z,10.23
2022-12-12T01:40:41.695Z,10.05
2022-12-12T01:43:18.819Z,9.63
2022-12-12T01:46:20.479Z,9.05
2022-12-12T01:48:55.886Z,9.05
2022-12-12T01:51:28.016Z,8.52
2022-12-12T01:54:02.637Z,9.43
2022-12-12T01:56:33.093Z,9.35
2022-12-12T01:59:15.391Z,9.15
2022-12-12T02:01:50.686Z,8.30
2022-12-12T02:04:29.681Z,8.98
2022-12-12T02:06:59.644Z,8.80
2022-12-12T02:09:29.195Z,7.93
2022-12-12T02:11:59.445Z,8.73
2022-12-12T02:14:31.522Z,8.35
2022-12-12T02:17:31.092Z,8.95
2022-12-12T02:24:09.790Z,8.02
2022-12-12T02:27:08.443Z,7.97
2022-12-12T02:30:08.639Z,7.35
2022-12-12T02:32:59.489Z,7.32
2022-12-12T02:35:42.416Z,6.78
2022-12-12T02:38:22.601Z,5.85
2022-12-12T02:41:03.852Z,6.88
2022-12-12T02:43:40.836Z,7.18
2022-12-12T02:46:17.297Z,6.50
2022-12-12T02:49:01.274Z,6.55
2022-12-12T02:51:38.094Z,6.50
2022-12-12T02:54:15.796Z,7.28
2022-12-12T02:57:01.486Z,6.28
2022-12-12T02:59:34.458Z,6.10
2022-12-12T03:02:35.396Z,6.18
2022-12-12T03:05:34.065Z,5.55
2022-12-12T03:08:16.347Z,5.95
2022-12-12T03:10:55.012Z,5.97
2022-12-12T03:13:33.007Z,5.40
2022-12-12T03:16:14.584Z,6.03
2022-12-12T03:18:58.904Z,5.13
2022-12-12T03:21:39.411Z,6.55
2022-12-12T03:24:22.529Z,6.43
2022-12-12T03:27:00.644Z,6.22
2022-12-12T03:29:39.049Z,5.85
2022-12-12T03:32:13.664Z,5.93
2022-12-12T03:34:46.815Z,6.00
2022-12-12T03:37:25.083Z,5.00
2022-12-12T03:39:59.969Z,5.20
2022-12-12T03:42:40.047Z,5.60
2022-12-12T03:45:15.660Z,5.72
2022-12-12T03:47:51.493Z,5.13
2022-12-12T03:50:29.464Z,5.53
2022-12-12T03:53:05.230Z,5.25
2022-12-12T03:55:39.768Z,6.05
2022-12-12T03:58:21.212Z,5.78
2022-12-12T04:00:53.274Z,5.80
2022-12-12T04:03:29.928Z,5.38
2022-12-12T04:06:25.318Z,5.28
2022-12-12T04:09:13.008Z,5.20
2022-12-12T04:11:59.542Z,5.50
2022-12-12T04:14:48.348Z,5.88
2022-12-12T04:17:23.970Z,5.50
2022-12-12T04:20:10.440Z,5.22
2022-12-12T04:23:01.090Z,5.53
2022-12-12T04:25:58.040Z,5.47
2022-12-12T04:28:29.175Z,5.28
2022-12-12T04:31:04.086Z,6.00
2022-12-12T04:33:42.858Z,5.57
2022-12-12T04:36:15.266Z,5.43
2022-12-12T04:38:53.058Z,5.63
2022-12-12T04:41:26.496Z,5.47
2022-12-12T04:43:58.348Z,5.82
2022-12-12T04:46:30.733Z,5.47
2022-12-12T04:49:03.871Z,5.88
2022-12-12T04:51:47.074Z,5.25
2022-12-12T04:54:21.636Z,5.15
2022-12-12T04:56:56.291Z,5.82
2022-12-12T04:59:26.268Z,5.10
2022-12-12T05:02:01.413Z,5.40
2022-12-12T05:04:43.432Z,5.03
2022-12-12T05:07:18.705Z,5.90
2022-12-12T05:10:01.842Z,5.93
2022-12-12T05:12:41.445Z,5.90
2022-12-12T05:15:12.069Z,5.40
2022-12-12T05:17:49.528Z,5.50
2022-12-12T05:20:18.934Z,5.22
2022-12-12T05:22:48.063Z,5.50
2022-12-12T05:25:28.856Z,5.45
2022-12-12T05:28:00.164Z,5.32
2022-12-12T05:30:29.775Z,5.60
2022-12-12T05:33:04.906Z,5.45
2022-12-12T05:35:40.377Z,5.22
2022-12-12T05:38:09.812Z,4.50
2022-12-12T05:40:39.438Z,4.80
2022-12-12T05:43:16.854Z,5.40
2022-12-12T05:45:46.692Z,4.25
2022-12-12T05:48:27.378Z,4.72
2022-12-12T05:50:56.914Z,4.40
2022-12-12T05:53:26.054Z,4.43
2022-12-12T05:55:55.427Z,5.00
2022-12-12T05:58:26.567Z,4.57
2022-12-12T06:01:00.083Z,4.70
2022-12-12T06:03:32.651Z,4.55
2022-12-12T06:06:02.667Z,4.70
2022-12-12T06:08:37.127Z,5.13
2022-12-12T06:11:08.618Z,4.65
2022-12-12T06:13:42.195Z,5.32
2022-12-12T06:16:14.947Z,5.00
2022-12-12T06:18:44.208Z,5.10
2022-12-12T06:21:18.909Z,4.90
2022-12-12T06:23:48.236Z,4.93
2022-12-12T06:26:19.249Z,4.60
2022-12-12T06:28:55.526Z,4.63
2022-12-12T06:31:24.912Z,4.20
2022-12-12T06:33:54.063Z,4.13
2022-12-12T06:36:25.600Z,4.07
2022-12-12T06:38:56.471Z,4.85
2022-12-12T06:41:27.474Z,4.45
2022-12-12T06:43:58.772Z,4.10
2022-12-12T06:46:30.159Z,5.07
2022-12-12T06:49:01.295Z,5.30
2022-12-12T06:54:07.925Z,4.60
2022-12-12T06:56:40.977Z,4.90
2022-12-12T06:59:21.263Z,4.93
2022-12-12T07:01:57.336Z,4.85
2022-12-12T07:04:27.647Z,4.50
2022-12-12T07:06:57.759Z,4.95
2022-12-12T07:09:27.880Z,5.03
2022-12-12T07:11:57.085Z,5.00
2022-12-12T07:14:33.185Z,5.20
2022-12-12T07:17:02.302Z,5.25
2022-12-12T07:19:31.537Z,5.53
2022-12-12T07:22:07.479Z,5.28
2022-12-12T07:24:39.136Z,5.72
2022-12-12T07:27:09.000Z,5.72
2022-12-12T07:29:40.156Z,5.60
2022-12-12T07:32:14.429Z,5.82
2022-12-12T07:34:43.639Z,5.40
2022-12-12T07:37:12.663Z,6.35
2022-12-12T07:39:42.155Z,5.32
2022-12-12T07:42:11.227Z,6.35
2022-12-12T07:44:47.418Z,5.95
2022-12-12T07:47:16.672Z,6.22
2022-12-12T07:49:45.961Z,7.00
2022-12-12T07:52:15.145Z,7.20
2022-12-12T07:54:44.211Z,7.00
2022-12-12T07:57:13.602Z,7.38
2022-12-12T07:59:47.766Z,7.45
2022-12-12T08:02:19.078Z,7.85
2022-12-12T08:04:48.356Z,8.18
2022-12-12T08:07:18.789Z,7.43
2022-12-12T08:09:48.132Z,6.80
2022-12-12T08:12:17.164Z,8.93
2022-12-12T08:14:51.590Z,7.13
2022-12-12T08:17:22.843Z,8.15
2022-12-12T08:19:52.275Z,7.95
2022-12-12T08:22:22.561Z,7.10
2022-12-12T08:24:52.121Z,7.20
2022-12-12T08:27:21.751Z,7.80
2022-12-12T08:29:53.604Z,7.68
2022-12-12T08:34:59.291Z,6.93
2022-12-12T08:37:33.476Z,6.72
2022-12-12T08:40:14.049Z,6.32
2022-12-12T08:42:43.268Z,5.75
2022-12-12T08:45:13.455Z,5.68
2022-12-12T08:47:50.286Z,6.00
2022-12-12T08:50:19.489Z,6.03
2022-12-12T08:52:48.605Z,6.03
2022-12-12T08:55:32.529Z,6.63
2022-12-12T08:58:01.840Z,5.60
2022-12-12T09:00:31.279Z,5.82
2022-12-12T09:03:02.626Z,5.93
2022-12-12T09:05:31.896Z,5.72
2022-12-12T09:08:01.112Z,5.93
2022-12-12T09:10:31.090Z,5.93
2022-12-12T09:13:00.240Z,6.07
2022-12-12T09:15:29.468Z,6.05
2022-12-12T09:17:58.573Z,6.05
2022-12-12T09:20:34.844Z,6.90
2022-12-12T09:23:09.009Z,6.45
2022-12-12T09:25:46.194Z,6.75
2022-12-12T09:28:17.283Z,6.50
2022-12-12T09:30:47.869Z,6.60
2022-12-12T09:33:22.304Z,6.93
2022-12-12T09:36:01.139Z,7.07
2022-12-12T09:38:30.851Z,6.43
2022-12-12T09:41:05.084Z,6.55
2022-12-12T09:43:38.709Z,6.78
2022-12-12T09:46:17.859Z,7.00
2022-12-12T09:48:48.576Z,7.60
2022-12-12T09:51:26.881Z,6.63
2022-12-12T09:54:01.530Z,7.28
2022-12-12T09:59:42.922Z,7.78
2022-12-12T10:02:38.990Z,7.70
2022-12-12T10:05:24.492Z,8.35
2022-12-12T10:08:04.439Z,7.57
2022-12-12T10:10:38.191Z,8.07
2022-12-12T10:13:14.317Z,7.90
2022-12-12T10:15:47.508Z,8.18
2022-12-12T10:18:20.910Z,8.35
2022-12-12T10:20:55.092Z,8.50
2022-12-12T10:23:34.528Z,8.93
2022-12-12T10:26:07.019Z,8.50
2022-12-12T10:28:37.285Z,9.25
2022-12-12T10:31:28.115Z,9.10
2022-12-12T10:34:07.910Z,8.27
2022-12-12T10:36:54.559Z,9.48
2022-12-12T10:39:37.607Z,9.70
2022-12-12T10:42:18.857Z,8.98
2022-12-12T10:45:01.847Z,9.80
2022-12-12T10:47:32.976Z,9.82
2022-12-12T10:50:22.416Z,9.23
2022-12-12T10:52:51.734Z,8.70
2022-12-12T10:55:24.963Z,9.43
2022-12-12T10:58:03.711Z,9.93
2022-12-12T11:00:35.563Z,10.02
2022-12-12T11:05:48.856Z,9.50
2022-12-12T11:08:28.397Z,9.88
2022-12-12T11:11:06.340Z,9.73
2022-12-12T11:13:48.070Z,9.90
2022-12-12T11:16:24.902Z,9.90
2022-12-12T11:19:04.671Z,10.13
2022-12-12T11:24:31.647Z,10.07
2022-12-12T11:29:46.223Z,10.30
2022-12-12T11:32:18.282Z,9.82
2022-12-12T11:34:52.188Z,10.38
2022-12-12T11:37:26.311Z,9.82
2022-12-12T11:39:57.726Z,9.75
2022-12-12T11:42:31.342Z,10.02
2022-12-12T11:45:04.326Z,9.75
2022-12-12T11:47:40.424Z,8.93
2022-12-12T11:50:21.743Z,10.27
2022-12-12T11:52:53.146Z,9.63
2022-12-12T11:55:36.070Z,11.00
2022-12-12T11:58:18.797Z,9.73
2022-12-12T12:00:59.827Z,9.35
2022-12-12T12:03:53.744Z,9.63
2022-12-12T12:06:38.814Z,9.15
2022-12-12T12:09:26.319Z,8.95
2022-12-12T12:12:03.326Z,8.50
2022-12-12T12:14:50.435Z,8.15
2022-12-12T12:17:28.715Z,8.93
2022-12-12T12:20:12.369Z,9.38
2022-12-12T12:22:52.987Z,8.82
2022-12-12T12:25:32.233Z,8.30
2022-12-12T12:28:14.472Z,8.48
2022-12-12T12:30:59.042Z,8.48
2022-12-12T12:33:40.812Z,7.88
2022-12-12T12:36:21.481Z,8.60
2022-12-12T12:39:07.088Z,8.20
2022-12-12T12:41:46.616Z,8.07
2022-12-12T12:44:30.430Z,7.45
2022-12-12T12:47:12.130Z,7.30
2022-12-12T12:55:02.961Z,7.68
2022-12-12T12:57:36.967Z,6.90
2022-12-12T13:00:16.612Z,7.03
2022-12-12T13:02:55.698Z,6.38
2022-12-12T13:05:38.133Z,5.95
2022-12-12T13:08:17.258Z,5.43
2022-12-12T13:13:30.329Z,5.60
2022-12-12T13:16:04.293Z,5.47
2022-12-12T13:18:45.259Z,5.07
2022-12-12T13:24:12.329Z,5.22
2022-12-12T13:26:58.712Z,5.28
2022-12-12T13:29:36.988Z,5.30
2022-12-12T13:32:34.818Z,4.97
2022-12-12T13:35:11.676Z,4.78
2022-12-12T13:37:47.758Z,5.00
2022-12-12T13:40:27.347Z,4.85
2022-12-12T13:43:08.744Z,4.50
2022-12-12T13:45:42.627Z,4.20
2022-12-12T13:48:44.497Z,4.60
2022-12-12T13:51:42.450Z,4.20
2022-12-12T13:54:52.070Z,4.10
2022-12-12T13:57:33.809Z,4.07
2022-12-12T14:00:20.788Z,4.10
2022-12-12T14:03:01.959Z,4.03
2022-12-12T14:05:41.201Z,4.15
2022-12-12T14:08:23.222Z,4.55
2022-12-12T14:10:57.806Z,4.05
2022-12-12T14:13:44.815Z,4.20
2022-12-12T14:16:35.902Z,4.28
2022-12-12T14:19:08.662Z,4.20
2022-12-12T14:21:48.606Z,4.32
2022-12-12T14:24:48.333Z,4.30
2022-12-12T14:27:19.232Z,4.22
2022-12-12T14:29:48.572Z,4.18
2022-12-12T14:32:44.614Z,4.70
2022-12-12T14:35:33.351Z,4.57
2022-12-12T14:38:17.645Z,4.68
2022-12-12T14:40:54.250Z,4.53
2022-12-12T14:43:27.250Z,4.28
2022-12-12T14:46:00.158Z,4.63
2022-12-12T14:48:33.606Z,4.03
2022-12-12T14:51:08.715Z,4.20
2022-12-12T14:53:47.227Z,4.15
2022-12-12T14:56:18.741Z,5.10
2022-12-12T14:58:55.507Z,4.65
2022-12-12T15:01:33.728Z,4.70
2022-12-12T15:04:20.983Z,4.82
2022-12-12T15:06:53.260Z,4.50
2022-12-12T15:09:28.983Z,4.75
2022-12-12T15:12:14.141Z,4.80
2022-12-12T15:14:54.811Z,4.65
2022-12-12T15:17:29.181Z,4.53
2022-12-12T15:20:02.905Z,4.88
2022-12-12T15:22:35.621Z,5.13
2022-12-12T15:27:45.384Z,4.78
2022-12-12T15:30:33.894Z,4.72
2022-12-12T15:33:05.067Z,4.93
2022-12-12T15:35:36.708Z,4.63
2022-12-12T15:38:14.630Z,5.25
2022-12-12T15:41:13.077Z,5.00
2022-12-12T15:43:49.019Z,5.38
2022-12-12T15:48:55.257Z,5.10
2022-12-12T15:51:31.625Z,4.93
2022-12-12T15:56:43.066Z,4.88
2022-12-12T15:59:27.892Z,5.35
2022-12-12T16:02:27.722Z,5.35
2022-12-12T16:05:00.453Z,5.40
2022-12-12T16:07:37.081Z,4.63
2022-12-12T16:10:23.507Z,4.60
2022-12-12T16:13:04.722Z,5.43
2022-12-12T16:15:37.257Z,4.53
2022-12-12T16:18:19.399Z,5.43
2022-12-12T16:23:31.586Z,5.80
2022-12-12T16:26:01.320Z,6.10
2022-12-12T16:28:32.089Z,5.40
2022-12-12T16:31:03.173Z,5.30
2022-12-12T16:33:35.449Z,6.17
2022-12-12T16:36:06.429Z,5.75
2022-12-12T16:38:40.034Z,5.20
2022-12-12T16:41:14.448Z,5.85
2022-12-12T16:43:44.432Z,5.57
2022-12-12T16:46:20.821Z,5.90
2022-12-12T16:48:50.649Z,6.05
2022-12-12T16:51:23.466Z,5.97
2022-12-12T16:54:00.284Z,6.32
2022-12-12T16:56:29.560Z,5.70
2022-12-12T16:58:58.676Z,6.22
2022-12-12T17:04:16.952Z,5.55
2022-12-12T17:06:46.272Z,5.57
2022-12-12T17:09:17.557Z,5.88
2022-12-12T17:11:46.784Z,5.15
2022-12-12T17:16:55.715Z,5.05
2022-12-12T17:19:26.019Z,4.85
2022-12-12T17:21:55.050Z,5.00
2022-12-12T17:24:26.344Z,4.03
2022-12-12T17:27:00.625Z,4.90
2022-12-12T17:29:30.382Z,5.10
2022-12-12T17:31:59.929Z,5.30
2022-12-12T17:34:34.420Z,5.63
2022-12-12T17:37:03.752Z,5.03
2022-12-12T17:39:34.944Z,5.10
2022-12-12T17:42:04.140Z,4.75
2022-12-12T17:44:33.581Z,4.82
2022-12-12T17:47:03.221Z,5.65
2022-12-12T17:49:32.668Z,5.60
2022-12-12T17:52:03.079Z,4.60
2022-12-12T17:54:32.375Z,4.82
2022-12-12T17:57:03.485Z,4.75
2022-12-12T17:59:32.655Z,4.70
2022-12-12T18:02:01.822Z,5.13
2022-12-12T18:04:37.681Z,4.78
2022-12-12T18:07:07.188Z,5.18
2022-12-12T18:09:42.119Z,5.32
2022-12-12T18:12:13.278Z,4.90
2022-12-12T18:14:42.507Z,4.03
2022-12-12T18:17:11.664Z,4.35
2022-12-12T18:19:40.907Z,4.55
2022-12-12T18:22:10.348Z,4.57
2022-12-12T18:24:39.552Z,4.22
2022-12-12T18:27:08.779Z,4.07
2022-12-12T18:29:50.207Z,3.97
2022-12-12T18:32:19.366Z,4.95
2022-12-12T18:34:48.676Z,4.63
2022-12-12T18:37:18.031Z,4.93
2022-12-12T18:39:47.205Z,4.50
2022-12-12T18:42:21.637Z,4.82
2022-12-12T18:44:52.946Z,4.68
2022-12-12T18:47:23.597Z,4.72
2022-12-12T18:49:52.910Z,5.03
2022-12-12T18:52:22.081Z,4.32
2022-12-12T18:55:08.859Z,4.35
2022-12-12T18:57:38.047Z,4.20
2022-12-12T19:00:10.775Z,4.38
2022-12-12T19:05:31.625Z,4.07
2022-12-12T19:08:00.948Z,4.00
2022-12-12T19:10:30.232Z,4.18
2022-12-12T19:12:59.401Z,4.30
2022-12-12T19:15:30.568Z,4.05
2022-12-12T19:18:05.212Z,3.60
2022-12-12T19:20:34.299Z,4.43
2022-12-12T19:23:08.496Z,4.07
2022-12-12T19:25:42.550Z,4.00
2022-12-12T19:28:13.300Z,3.63
2022-12-12T19:30:44.464Z,3.47
2022-12-12T19:33:19.003Z,3.63
2022-12-12T19:35:48.253Z,3.55
2022-12-12T19:38:22.763Z,3.58
2022-12-12T19:40:58.873Z,3.53
2022-12-12T19:43:30.824Z,3.50
2022-12-12T19:48:36.232Z,3.00
2022-12-12T19:51:10.474Z,3.70
2022-12-12T19:53:48.464Z,3.13
2022-12-12T19:56:25.688Z,3.45
2022-12-12T19:58:55.407Z,3.28
2022-12-12T20:01:33.417Z,2.95
2022-12-12T20:04:09.524Z,3.60
2022-12-12T20:06:45.404Z,3.15
2022-12-12T20:09:15.781Z,4.03
2022-12-12T20:11:45.672Z,3.80
2022-12-12T20:17:07.386Z,3.53
2022-12-12T20:19:36.616Z,3.70
2022-12-12T20:22:05.976Z,3.80
2022-12-12T20:24:37.039Z,3.58
2022-12-12T20:27:07.766Z,3.50
2022-12-12T20:29:37.332Z,3.22
2022-12-12T20:32:09.203Z,3.63
2022-12-12T20:37:09.255Z,3.63
2022-12-12T20:39:43.798Z,3.55
2022-12-12T20:42:34.009Z,3.60
2022-12-12T20:45:03.524Z,3.70
2022-12-12T20:50:16.639Z,3.50
2022-12-12T20:52:45.882Z,4.00
2022-12-12T20:55:15.338Z,3.58
2022-12-12T20:57:45.129Z,3.80
2022-12-12T21:00:15.433Z,4.03
2022-12-12T21:02:47.082Z,3.35
2022-12-12T21:05:16.744Z,3.63
2022-12-12T21:07:46.097Z,3.58
2022-12-12T21:10:20.595Z,3.28
2022-12-12T21:12:49.773Z,3.28
2022-12-12T21:15:19.439Z,3.28
2022-12-12T21:17:51.319Z,3.20
2022-12-12T21:20:20.601Z,3.65
2022-12-12T21:22:49.876Z,3.50
2022-12-12T21:25:24.446Z,2.90
2022-12-12T21:27:53.733Z,3.17
2022-12-12T21:30:23.111Z,3.38
2022-12-12T21:32:54.368Z,3.30
2022-12-12T21:35:24.117Z,3.17
2022-12-12T21:37:53.375Z,3.00
2022-12-12T21:40:22.643Z,2.80
2022-12-12T21:42:52.006Z,3.20
2022-12-12T21:45:21.508Z,2.72
2022-12-12T21:47:55.852Z,2.75
2022-12-12T21:50:32.163Z,2.42
2022-12-12T21:53:19.549Z,2.42
2022-12-12T21:55:48.932Z,2.70
2022-12-12T21:58:18.386Z,2.83
2022-12-12T22:00:47.598Z,2.80
2022-12-12T22:03:16.757Z,2.78
2022-12-12T22:05:48.222Z,2.63
2022-12-12T22:08:18.735Z,2.70
2022-12-12T22:10:48.057Z,2.55
2022-12-12T22:13:29.681Z,2.83
2022-12-12T22:16:00.248Z,2.45
2022-12-12T22:18:30.092Z,2.65
2022-12-12T22:21:08.190Z,2.50
2022-12-12T22:23:40.535Z,2.70
2022-12-12T22:26:17.251Z,2.38
2022-12-12T22:28:46.561Z,2.88
2022-12-12T22:31:15.851Z,2.50
2022-12-12T22:33:50.807Z,2.60
2022-12-12T22:36:26.380Z,2.78
2022-12-12T22:38:56.770Z,2.40
2022-12-12T22:41:28.414Z,2.47
2022-12-12T22:43:59.511Z,2.50
2022-12-12T22:46:29.363Z,2.40
2022-12-12T22:49:00.748Z,2.42
2022-12-12T22:51:33.768Z,2.53
2022-12-12T22:54:10.413Z,2.47
2022-12-12T22:56:40.923Z,2.60
2022-12-12T22:59:12.431Z,2.40
2022-12-12T23:01:43.696Z,2.33
2022-12-12T23:04:15.107Z,2.50
2022-12-12T23:06:46.967Z,2.65
2022-12-12T23:09:23.770Z,2.38
2022-12-12T23:11:53.002Z,2.60
2022-12-12T23:14:25.858Z,2.78
2022-12-12T23:16:56.287Z,2.47
2022-12-12T23:19:33.447Z,2.60
2022-12-12T23:22:04.717Z,2.60
2022-12-12T23:24:39.652Z,2.42
2022-12-12T23:27:08.791Z,2.80
2022-12-12T23:29:38.187Z,2.92
2022-12-12T23:32:07.555Z,2.55
2022-12-12T23:34:36.823Z,2.45
2022-12-12T23:37:07.893Z,2.70
2022-12-12T23:39:37.493Z,2.40
2022-12-12T23:42:06.719Z,2.70
2022-12-12T23:44:35.885Z,2.53
2022-12-12T23:47:04.996Z,2.50
2022-12-12T23:49:39.177Z,2.47
2022-12-12T23:52:10.351Z,2.80
2022-12-12T23:54:44.873Z,2.67
2022-12-12T23:57:14.469Z,2.42
2022-12-12T23:59:43.846Z,2.53
